Time;durP1;ratioP1;P1;durP2;ratioP2;P2;SDS_P1;SDS_P2;PMS_P1;PMS_P2;Temp;Humidity;BMP_temperature;BMP_pressure;BME280_temperature;BME280_humidity;BME280_pressure;Samples;Min_cycle;Max_cycle;Signal;HPM_P1;HPM_P2
2023/02/17 06:30:07;;;;;;;;;8.50;8.50;;;;;;;;6106541;22;46782;31
2023/02/17 06:32:33;;;;;;;;;7.00;7.00;;;;;;;;4972617;28;46547;-61
2023/02/17 06:34:58;;;;;;;;;7.67;6.00;;;;;;;;4976398;28;45536;-62
2023/02/17 06:37:23;;;;;;;;;5.00;5.00;;;;;;;;4972766;28;47023;-62
2023/02/17 06:39:49;;;;;;;;;6.00;5.33;;;;;;;;4978525;28;45407;-62
2023/02/17 06:42:14;;;;;;;;;8.00;7.67;;;;;;;;4984600;28;45612;-63
2023/02/17 06:44:39;;;;;;;;;7.67;7.67;;;;;;;;4977801;28;45456;-62
2023/02/17 06:47:04;;;;;;;;;7.00;6.33;;;;;;;;4979148;28;46071;-61
2023/02/17 06:49:29;;;;;;;;;6.00;6.00;;;;;;;;4976969;28;45345;-61
2023/02/17 06:51:55;;;;;;;;;8.00;7.33;;;;;;;;4976756;28;45500;-62
2023/02/17 06:54:20;;;;;;;;;7.67;7.00;;;;;;;;4980623;28;45449;-61
2023/02/17 06:56:45;;;;;;;;;8.67;7.00;;;;;;;;4977891;28;45744;-61
2023/02/17 06:59:10;;;;;;;;;5.67;5.67;;;;;;;;4978448;28;45413;-61
2023/02/17 07:01:36;;;;;;;;;5.00;5.00;;;;;;;;4983402;28;45380;-62
2023/02/17 07:04:01;;;;;;;;;6.00;5.33;;;;;;;;4979087;28;45541;-62
2023/02/17 07:06:26;;;;;;;;;5.67;5.00;;;;;;;;4974860;28;46197;-62
2023/02/17 07:08:51;;;;;;;;;5.67;4.00;;;;;;;;4976276;28;45388;-62
2023/02/17 07:11:17;;;;;;;;;6.00;5.67;;;;;;;;4979137;28;45507;-61
2023/02/17 07:13:43;;;;;;;;;8.00;8.00;;;;;;;;4977581;28;45270;-61
2023/02/17 07:16:09;;;;;;;;;6.33;6.33;;;;;;;;4978911;28;46165;-61
2023/02/17 07:18:36;;;;;;;;;8.00;7.00;;;;;;;;4978255;28;45309;-61
2023/02/17 07:21:03;;;;;;;;;7.00;7.00;;;;;;;;4978964;28;45478;-62
2023/02/17 07:23:28;;;;;;;;;5.33;5.00;;;;;;;;4978776;28;45408;-62
2023/02/17 07:25:53;;;;;;;;;7.33;6.33;;;;;;;;4978520;28;45487;-62
2023/02/17 07:28:18;;;;;;;;;6.00;6.00;;;;;;;;4980713;28;47201;-60
2023/02/17 07:30:44;;;;;;;;;8.00;8.00;;;;;;;;4977959;28;46000;-60
2023/02/17 07:33:09;;;;;;;;;10.67;6.67;;;;;;;;4978625;28;45344;-60
2023/02/17 07:35:39;;;;;;;;;7.00;7.00;;;;;;;;4978203;28;45403;-60
2023/02/17 07:38:04;;;;;;;;;7.00;7.00;;;;;;;;4978946;28;45404;-60
2023/02/17 07:40:29;;;;;;;;;7.33;7.00;;;;;;;;4977110;28;45598;-60
2023/02/17 07:42:55;;;;;;;;;7.67;7.67;;;;;;;;4978487;28;46441;-60
2023/02/17 07:45:20;;;;;;;;;10.67;7.67;;;;;;;;4978303;28;45575;-60
2023/02/17 07:47:46;;;;;;;;;5.00;5.00;;;;;;;;4980406;28;45604;-61
2023/02/17 07:50:11;;;;;;;;;8.00;6.33;;;;;;;;4978448;28;45529;-61
2023/02/17 07:52:36;;;;;;;;;7.00;7.00;;;;;;;;4977508;28;45448;-61
2023/02/17 07:55:01;;;;;;;;;8.00;6.00;;;;;;;;4977759;28;45956;-62
2023/02/17 07:57:27;;;;;;;;;7.33;7.33;;;;;;;;4978517;28;45388;-61
2023/02/17 07:59:52;;;;;;;;;5.67;5.33;;;;;;;;4977960;28;45539;-61
2023/02/17 08:02:17;;;;;;;;;8.67;6.33;;;;;;;;4978956;28;45428;-61
2023/02/17 08:04:42;;;;;;;;;7.00;7.00;;;;;;;;4978620;28;46086;-61
2023/02/17 08:07:08;;;;;;;;;8.00;7.00;;;;;;;;4978357;28;45572;-61
2023/02/17 08:15:02;;;;;;;;;7.33;7.33;;;;;;;;4977923;28;45380;-62
2023/02/17 08:17:28;;;;;;;;;8.67;7.67;;;;;;;;4978181;28;45351;-61
2023/02/17 08:19:53;;;;;;;;;9.67;6.67;;;;;;;;4980063;28;45487;-62
2023/02/17 08:22:19;;;;;;;;;10.33;7.33;;;;;;;;4974538;28;45520;-61
2023/02/17 08:24:44;;;;;;;;;6.67;6.33;;;;;;;;4977190;28;45369;-60
2023/02/17 08:27:09;;;;;;;;;7.33;7.00;;;;;;;;4980403;28;45429;-61
2023/02/17 08:29:35;;;;;;;;;6.67;6.67;;;;;;;;4978794;28;45384;-61
2023/02/17 08:32:00;;;;;;;;;8.00;7.00;;;;;;;;4981513;28;45452;-61
2023/02/17 08:34:26;;;;;;;;;5.67;5.67;;;;;;;;4996022;28;47104;-61
2023/02/17 08:36:51;;;;;;;;;6.33;6.33;;;;;;;;4979612;28;46027;-61
2023/02/17 08:39:17;;;;;;;;;7.00;6.00;;;;;;;;4980438;28;45203;-61
2023/02/17 08:41:43;;;;;;;;;5.33;5.33;;;;;;;;4980415;28;45584;-61
2023/02/17 08:44:10;;;;;;;;;11.67;7.67;;;;;;;;4980245;28;46065;-61
2023/02/17 08:46:36;;;;;;;;;9.67;8.67;;;;;;;;4980735;28;45569;-60
2023/02/17 08:49:02;;;;;;;;;6.67;4.67;;;;;;;;4976334;28;45604;-60
2023/02/17 08:51:27;;;;;;;;;5.33;4.00;;;;;;;;4980152;28;45633;-60
2023/02/17 08:53:54;;;;;;;;;7.00;5.33;;;;;;;;4977013;28;45443;-60
2023/02/17 08:56:19;;;;;;;;;7.00;6.33;;;;;;;;4976989;28;45408;-60
2023/02/17 08:58:45;;;;;;;;;4.67;4.67;;;;;;;;4979843;28;45412;-60
2023/02/17 09:01:11;;;;;;;;;3.33;3.33;;;;;;;;4971340;28;45427;-62
2023/02/17 09:03:36;;;;;;;;;6.67;6.00;;;;;;;;4979518;28;46262;-61
2023/02/17 09:06:02;;;;;;;;;5.00;4.00;;;;;;;;4980769;28;45752;-62
2023/02/17 09:08:27;;;;;;;;;5.67;5.00;;;;;;;;4979720;28;45357;-62
2023/02/17 09:10:53;;;;;;;;;5.33;5.33;;;;;;;;4980183;28;45436;-61
2023/02/17 09:13:18;;;;;;;;;5.33;4.33;;;;;;;;4976795;28;46949;-61
2023/02/17 09:15:43;;;;;;;;;4.67;4.00;;;;;;;;4979234;28;45373;-61
2023/02/17 09:18:09;;;;;;;;;9.33;7.67;;;;;;;;4980266;28;45360;-61
2023/02/17 09:20:35;;;;;;;;;6.67;5.67;;;;;;;;4980001;28;45281;-61
2023/02/17 09:23:00;;;;;;;;;6.33;6.33;;;;;;;;4973280;28;47358;-61
2023/02/17 09:25:25;;;;;;;;;5.33;3.67;;;;;;;;4980551;28;45475;-61
2023/02/17 09:27:50;;;;;;;;;5.00;5.00;;;;;;;;4979504;28;45594;-61
2023/02/17 09:30:15;;;;;;;;;6.33;4.67;;;;;;;;4979801;28;45458;-61
2023/02/17 09:32:41;;;;;;;;;3.67;3.67;;;;;;;;4979626;28;46033;-61
2023/02/17 09:35:07;;;;;;;;;5.33;4.33;;;;;;;;4980126;28;45401;-61
2023/02/17 09:37:32;;;;;;;;;5.67;5.00;;;;;;;;4994297;28;45463;-61
2023/02/17 09:39:57;;;;;;;;;7.33;4.33;;;;;;;;4979842;28;45352;-61
2023/02/17 09:42:24;;;;;;;;;5.33;5.33;;;;;;;;4979691;28;45323;-62
2023/02/17 09:44:58;;;;;;;;;4.00;3.00;;;;;;;;4979053;28;45470;-62
2023/02/17 09:47:36;;;;;;;;;5.00;4.00;;;;;;;;4978330;28;45482;-62
2023/02/17 09:50:12;;;;;;;;;3.33;3.00;;;;;;;;4979698;28;45619;-62
2023/02/17 09:52:38;;;;;;;;;5.33;3.67;;;;;;;;4975863;28;48553;-62
2023/02/17 09:55:08;;;;;;;;;3.67;3.67;;;;;;;;4979608;28;45402;-61
2023/02/17 09:57:36;;;;;;;;;5.00;5.00;;;;;;;;4979090;28;45486;-61
2023/02/17 10:00:20;;;;;;;;;4.00;4.00;;;;;;;;4978997;28;45369;-61
2023/02/17 10:02:54;;;;;;;;;5.67;5.00;;;;;;;;4978932;28;45483;-62
2023/02/17 10:05:21;;;;;;;;;3.00;3.00;;;;;;;;4979785;28;45297;-62
2023/02/17 10:07:52;;;;;;;;;3.00;3.00;;;;;;;;4978552;28;45280;-62
2023/02/17 10:10:21;;;;;;;;;5.00;5.00;;;;;;;;4978840;28;45391;-61
2023/02/17 10:12:49;;;;;;;;;5.67;3.00;;;;;;;;4979167;28;45377;-62
2023/02/17 10:15:17;;;;;;;;;3.67;3.67;;;;;;;;4977373;28;45424;-61
2023/02/17 10:17:46;;;;;;;;;5.33;4.33;;;;;;;;4978718;28;45481;-61
2023/02/17 10:20:12;;;;;;;;;4.00;4.00;;;;;;;;4979734;28;45525;-61
2023/02/17 10:22:41;;;;;;;;;4.33;3.67;;;;;;;;4978606;28;45420;-61
2023/02/17 10:25:17;;;;;;;;;5.67;5.00;;;;;;;;4979630;28;45411;-61
2023/02/17 10:27:50;;;;;;;;;4.67;4.33;;;;;;;;4978183;28;45634;-61
2023/02/17 10:30:34;;;;;;;;;3.67;3.67;;;;;;;;4979127;28;45408;-61
2023/02/17 10:33:38;;;;;;;;;4.00;2.00;;;;;;;;4978860;28;45450;-61
2023/02/17 10:36:03;;;;;;;;;2.00;2.00;;;;;;;;4990835;28;45518;-61
2023/02/17 10:38:49;;;;;;;;;6.00;5.33;;;;;;;;4993255;28;45440;-61
2023/02/17 10:41:16;;;;;;;;;5.00;3.00;;;;;;;;4986150;28;45620;-61
2023/02/17 10:43:43;;;;;;;;;3.00;3.00;;;;;;;;4978586;28;46436;-61
2023/02/17 10:46:11;;;;;;;;;3.00;3.00;;;;;;;;4977705;28;45458;-61
2023/02/17 10:48:37;;;;;;;;;4.00;4.00;;;;;;;;4976630;28;45400;-62
2023/02/17 10:51:02;;;;;;;;;3.00;3.00;;;;;;;;4979193;28;45357;-61
2023/02/17 10:53:32;;;;;;;;;6.33;3.00;;;;;;;;4978091;28;47026;-61
2023/02/17 10:56:02;;;;;;;;;3.00;3.00;;;;;;;;4976826;28;45467;-62
2023/02/17 10:58:31;;;;;;;;;6.67;3.00;;;;;;;;4977756;28;45471;-61
2023/02/17 11:00:57;;;;;;;;;4.00;4.00;;;;;;;;4978612;28;45661;-61
2023/02/17 11:03:26;;;;;;;;;3.00;3.00;;;;;;;;4978088;28;46095;-61
2023/02/17 11:05:53;;;;;;;;;4.00;4.00;;;;;;;;4978001;28;45480;-61
2023/02/17 11:08:30;;;;;;;;;8.00;7.00;;;;;;;;4978617;28;45389;-61
2023/02/17 11:11:03;;;;;;;;;4.00;4.00;;;;;;;;4976375;28;45712;-61
2023/02/17 11:13:32;;;;;;;;;4.00;3.67;;;;;;;;4978003;28;48488;-61
2023/02/17 11:15:57;;;;;;;;;2.67;2.67;;;;;;;;4978590;28;45515;-61
2023/02/17 11:18:26;;;;;;;;;2.67;2.67;;;;;;;;4978642;28;45410;-61
2023/02/17 11:20:58;;;;;;;;;5.00;5.00;;;;;;;;4977782;28;45320;-60
2023/02/17 11:23:24;;;;;;;;;4.00;4.00;;;;;;;;4979224;28;46137;-61
2023/02/17 11:25:57;;;;;;;;;3.67;3.67;;;;;;;;4992899;28;45405;-60
2023/02/17 11:28:23;;;;;;;;;4.67;4.67;;;;;;;;4977800;28;45577;-61
2023/02/17 11:30:50;;;;;;;;;4.00;2.67;;;;;;;;4977576;28;45525;-62
2023/02/17 11:33:21;;;;;;;;;3.33;3.33;;;;;;;;4978083;28;45352;-62
2023/02/17 11:35:48;;;;;;;;;5.67;4.33;;;;;;;;4977552;28;45607;-61
2023/02/17 11:38:15;;;;;;;;;4.67;4.67;;;;;;;;4977491;28;45640;-62
2023/02/17 11:40:50;;;;;;;;;6.33;6.00;;;;;;;;4977653;28;45400;-61
2023/02/17 11:43:17;;;;;;;;;3.33;3.33;;;;;;;;4977971;28;45608;-61
2023/02/17 11:45:48;;;;;;;;;6.33;5.00;;;;;;;;4977663;28;45347;-61
2023/02/17 11:48:26;;;;;;;;;4.00;4.00;;;;;;;;4976680;28;45356;-63
2023/02/17 11:50:51;;;;;;;;;7.00;7.00;;;;;;;;4977232;28;45463;-61
2023/02/17 11:53:16;;;;;;;;;6.00;4.00;;;;;;;;4977505;28;46279;-61
2023/02/17 11:55:41;;;;;;;;;4.00;4.00;;;;;;;;4977518;28;45341;-61
2023/02/17 11:58:23;;;;;;;;;7.67;6.00;;;;;;;;4978014;28;45948;-61
2023/02/17 12:01:00;;;;;;;;;7.00;4.33;;;;;;;;4979799;28;45436;-61
2023/02/17 12:03:32;;;;;;;;;5.00;3.67;;;;;;;;4981328;28;46209;-61
2023/02/17 12:06:07;;;;;;;;;4.33;4.00;;;;;;;;4981968;28;45392;-61
2023/02/17 12:08:32;;;;;;;;;3.33;3.33;;;;;;;;4981095;28;45554;-62
2023/02/17 12:11:07;;;;;;;;;7.00;5.67;;;;;;;;4980872;28;45416;-61
2023/02/17 12:13:32;;;;;;;;;5.00;4.00;;;;;;;;4980597;28;46066;-75
2023/02/17 12:16:16;;;;;;;;;3.00;3.00;;;;;;;;4971848;28;46857;-75
2023/02/17 12:18:52;;;;;;;;;3.00;3.00;;;;;;;;4980083;28;45365;-76
2023/02/17 12:21:43;;;;;;;;;3.00;3.00;;;;;;;;4982330;28;45641;-77
2023/02/17 12:24:44;;;;;;;;;1.00;1.00;;;;;;;;4988307;28;46445;-76
2023/02/17 12:27:18;;;;;;;;;5.00;3.25;;;;;;;;5006665;28;45563;-77
2023/02/17 12:29:52;;;;;;;;;2.75;2.75;;;;;;;;4979742;28;45487;-77
2023/02/17 12:32:46;;;;;;;;;3.75;2.25;;;;;;;;4978352;28;45765;-78
2023/02/17 12:35:12;;;;;;;;;2.25;2.25;;;;;;;;4978962;28;46330;-77
2023/02/17 12:37:42;;;;;;;;;2.25;1.75;;;;;;;;4981146;28;45518;-77
2023/02/17 12:40:18;;;;;;;;;3.00;3.00;;;;;;;;4980621;28;45368;-77
2023/02/17 12:42:55;;;;;;;;;2.00;2.00;;;;;;;;4977771;28;45612;-78
2023/02/17 12:45:38;;;;;;;;;2.25;2.25;;;;;;;;4978796;28;46221;-78
2023/02/17 12:48:10;;;;;;;;;2.00;2.00;;;;;;;;4979796;28;45501;-77
2023/02/17 12:50:59;;;;;;;;;4.25;2.00;;;;;;;;4978988;28;45463;-76
2023/02/17 12:53:45;;;;;;;;;1.50;1.50;;;;;;;;4980458;28;45440;-76
2023/02/17 12:56:30;;;;;;;;;3.00;3.00;;;;;;;;4978574;28;47481;-76
2023/02/17 12:58:57;;;;;;;;;4.67;4.00;;;;;;;;4980777;28;45384;-77
2023/02/17 13:01:24;;;;;;;;;5.00;3.00;;;;;;;;4981489;28;45356;-76
2023/02/17 13:03:49;;;;;;;;;4.00;3.00;;;;;;;;4979954;28;45491;-77
2023/02/17 13:06:17;;;;;;;;;3.00;2.00;;;;;;;;4975209;28;45501;-78
2023/02/17 13:08:52;;;;;;;;;2.25;2.25;;;;;;;;4971739;28;45621;-77
2023/02/17 13:11:31;;;;;;;;;2.25;2.25;;;;;;;;4978580;28;45614;-79
2023/02/17 13:13:57;;;;;;;;;2.25;2.25;;;;;;;;4976272;28;45482;-78
2023/02/17 13:16:23;;;;;;;;;3.67;3.67;;;;;;;;4980484;28;46042;-76
2023/02/17 13:18:49;;;;;;;;;4.00;3.75;;;;;;;;4980628;28;45507;-76
2023/02/17 13:21:26;;;;;;;;;8.67;7.00;;;;;;;;4980508;28;45448;-76
2023/02/17 13:24:23;;;;;;;;;3.33;2.33;;;;;;;;4980561;28;45554;-76
2023/02/17 13:26:49;;;;;;;;;3.33;3.33;;;;;;;;4957218;28;45480;-78
2023/02/17 13:29:14;;;;;;;;;2.33;2.33;;;;;;;;4980005;28;45503;-79
2023/02/17 13:31:51;;;;;;;;;3.33;3.33;;;;;;;;4979975;28;45473;-76
2023/02/17 13:34:33;;;;;;;;;3.00;3.00;;;;;;;;4980617;28;45328;-75
2023/02/17 13:37:00;;;;;;;;;3.00;3.00;;;;;;;;4978351;28;46530;-78
2023/02/17 13:39:28;;;;;;;;;3.33;3.33;;;;;;;;4979715;28;45422;-77
2023/02/17 13:41:55;;;;;;;;;5.00;2.67;;;;;;;;4979005;28;45432;-77
2023/02/17 13:44:28;;;;;;;;;4.33;4.33;;;;;;;;4979185;28;45404;-77
2023/02/17 13:46:57;;;;;;;;;4.00;4.00;;;;;;;;4975958;28;46091;-76
2023/02/17 13:49:26;;;;;;;;;6.00;3.00;;;;;;;;4979003;28;45774;-77
2023/02/17 13:51:51;;;;;;;;;3.00;3.00;;;;;;;;4976149;28;45523;-78
2023/02/17 13:54:19;;;;;;;;;3.00;3.00;;;;;;;;4980797;28;45388;-77
2023/02/17 13:56:48;;;;;;;;;4.33;4.33;;;;;;;;4978503;28;45516;-74
2023/02/17 13:59:18;;;;;;;;;2.33;2.33;;;;;;;;4976279;28;45460;-77
2023/02/17 14:01:44;;;;;;;;;2.33;2.33;;;;;;;;4977849;28;45545;-76
2023/02/17 14:04:18;;;;;;;;;3.00;2.00;;;;;;;;4979555;28;45434;-77
2023/02/17 14:06:43;;;;;;;;;4.33;3.00;;;;;;;;4976127;28;46319;-77
2023/02/17 14:09:29;;;;;;;;;1.00;1.00;;;;;;;;4979474;28;45392;-77
2023/02/17 14:11:55;;;;;;;;;1.00;1.00;;;;;;;;4978658;28;45563;-78
2023/02/17 14:14:27;;;;;;;;;2.67;2.67;;;;;;;;4972509;28;45570;-77
2023/02/17 14:17:01;;;;;;;;;2.00;2.00;;;;;;;;4980289;28;46313;-78
2023/02/17 14:19:26;;;;;;;;;3.00;3.00;;;;;;;;4978271;28;45349;-78
2023/02/17 14:21:57;;;;;;;;;4.00;4.00;;;;;;;;4980086;28;45430;-78
2023/02/17 14:24:24;;;;;;;;;4.67;4.67;;;;;;;;4979178;28;45322;-78
2023/02/17 14:26:54;;;;;;;;;5.00;3.00;;;;;;;;4979881;28;46344;-77
2023/02/17 14:29:19;;;;;;;;;8.00;5.00;;;;;;;;4979797;28;45454;-77
2023/02/17 14:31:46;;;;;;;;;3.67;2.67;;;;;;;;4975631;28;45674;-76
2023/02/17 14:34:28;;;;;;;;;4.00;2.67;;;;;;;;4980024;28;45265;-78
2023/02/17 14:36:54;;;;;;;;;2.00;2.00;;;;;;;;4975746;28;46936;-77
2023/02/17 14:39:19;;;;;;;;;3.00;3.00;;;;;;;;4980752;28;45341;-78
2023/02/17 14:41:44;;;;;;;;;5.00;3.00;;;;;;;;4979711;28;45456;-77
2023/02/17 14:44:10;;;;;;;;;3.00;2.67;;;;;;;;4977195;28;45451;-79
2023/02/17 14:46:35;;;;;;;;;3.00;3.00;;;;;;;;4976605;28;46139;-77
2023/02/17 14:49:00;;;;;;;;;2.00;2.00;;;;;;;;4978278;28;45407;-78
2023/02/17 14:51:31;;;;;;;;;2.00;2.00;;;;;;;;4978872;28;45535;-78
2023/02/17 14:53:56;;;;;;;;;2.50;2.00;;;;;;;;4978691;28;45460;-78
2023/02/17 14:56:22;;;;;;;;;1.00;1.00;;;;;;;;4979038;28;46752;-77
2023/02/17 14:58:47;;;;;;;;;1.00;1.00;;;;;;;;4977755;28;45646;-78
2023/02/17 15:01:14;;;;;;;;;3.00;2.00;;;;;;;;4982118;28;45342;-78
2023/02/17 15:03:39;;;;;;;;;2.33;2.00;;;;;;;;4977653;28;46322;-77
2023/02/17 15:06:10;;;;;;;;;4.67;3.00;;;;;;;;4978055;28;45460;-77
2023/02/17 15:08:35;;;;;;;;;4.67;4.00;;;;;;;;4978826;28;45155;-77
2023/02/17 15:11:01;;;;;;;;;5.00;3.00;;;;;;;;4979346;28;45424;-78
2023/02/17 15:13:26;;;;;;;;;3.00;1.67;;;;;;;;4978650;28;46059;-77
2023/02/17 15:15:52;;;;;;;;;4.00;2.00;;;;;;;;4977819;28;46424;-77
2023/02/17 15:18:19;;;;;;;;;2.67;2.67;;;;;;;;4979772;28;45377;-78
2023/02/17 15:20:45;;;;;;;;;2.67;2.00;;;;;;;;4979619;28;45418;-77
2023/02/17 15:23:12;;;;;;;;;1.00;1.00;;;;;;;;4979434;28;45615;-76
2023/02/17 15:25:37;;;;;;;;;1.00;1.00;;;;;;;;4977814;28;46216;-78
2023/02/17 15:28:03;;;;;;;;;2.00;2.00;;;;;;;;4973868;28;45384;-77
2023/02/17 15:30:28;;;;;;;;;1.00;1.00;;;;;;;;4978153;28;45359;-78
2023/02/17 15:32:53;;;;;;;;;1.67;1.67;;;;;;;;4978592;28;45611;-78
2023/02/17 15:35:20;;;;;;;;;2.00;2.00;;;;;;;;4977763;28;45477;-78
2023/02/17 15:37:45;;;;;;;;;3.67;2.00;;;;;;;;4978094;28;45467;-78
2023/02/17 15:40:15;;;;;;;;;4.00;3.00;;;;;;;;4991780;28;45710;-78
2023/02/17 15:42:41;;;;;;;;;1.00;1.00;;;;;;;;4978174;28;45634;-78
2023/02/17 15:45:09;;;;;;;;;1.00;1.00;;;;;;;;4978021;28;45276;-78
2023/02/17 15:47:34;;;;;;;;;3.00;2.00;;;;;;;;4977027;28;45493;-78
2023/02/17 15:49:59;;;;;;;;;1.00;1.00;;;;;;;;4983598;28;45262;-78
2023/02/17 15:52:25;;;;;;;;;2.00;2.00;;;;;;;;4978887;28;45467;-78
2023/02/17 15:54:50;;;;;;;;;4.00;2.67;;;;;;;;4978291;28;46132;-79
2023/02/17 15:57:22;;;;;;;;;2.67;2.00;;;;;;;;4984923;28;45437;-78
2023/02/17 15:59:48;;;;;;;;;4.00;4.00;;;;;;;;4978792;28;45377;-78
2023/02/17 16:02:18;;;;;;;;;3.00;3.00;;;;;;;;4979262;28;45404;-78
2023/02/17 16:04:44;;;;;;;;;2.00;2.00;;;;;;;;4977841;28;46020;-78
2023/02/17 16:07:09;;;;;;;;;2.67;2.00;;;;;;;;4977774;28;45562;-79
2023/02/17 16:09:35;;;;;;;;;2.33;2.00;;;;;;;;4977806;28;45416;-78
2023/02/17 16:12:01;;;;;;;;;2.00;2.00;;;;;;;;4978166;28;45457;-78
2023/02/17 16:14:26;;;;;;;;;2.00;2.00;;;;;;;;4978918;28;47006;-77
2023/02/17 16:16:52;;;;;;;;;1.00;1.00;;;;;;;;4976293;28;45404;-77
2023/02/17 16:19:17;;;;;;;;;1.00;1.00;;;;;;;;4977049;28;45591;-77
2023/02/17 16:21:42;;;;;;;;;2.00;0.75;;;;;;;;4976145;28;45416;-77
2023/02/17 16:24:07;;;;;;;;;2.25;1.00;;;;;;;;4976869;28;45478;-78
2023/02/17 16:26:34;;;;;;;;;1.00;1.00;;;;;;;;4977780;28;45388;-76
2023/02/17 16:29:00;;;;;;;;;0.00;0.00;;;;;;;;4977268;28;45322;-76
2023/02/17 16:31:25;;;;;;;;;2.33;0.67;;;;;;;;4974674;28;45471;-77
2023/02/17 16:33:51;;;;;;;;;0.67;0.67;;;;;;;;4977317;28;45460;-78
2023/02/17 16:36:17;;;;;;;;;1.00;1.00;;;;;;;;4975756;28;45527;-79
2023/02/17 16:38:43;;;;;;;;;1.00;1.00;;;;;;;;4976819;28;45393;-79
2023/02/17 16:41:13;;;;;;;;;2.00;2.00;;;;;;;;4977396;28;45519;-80
2023/02/17 16:43:38;;;;;;;;;4.00;3.00;;;;;;;;4976915;28;45487;-80
2023/02/17 16:46:04;;;;;;;;;1.25;1.25;;;;;;;;4975800;28;45500;-77
2023/02/17 16:48:30;;;;;;;;;2.00;2.00;;;;;;;;4981347;28;45364;-77
2023/02/17 16:50:55;;;;;;;;;2.00;2.00;;;;;;;;4979582;28;45401;-75
2023/02/17 16:53:21;;;;;;;;;3.33;3.33;;;;;;;;4979473;28;46459;-75
2023/02/17 16:55:46;;;;;;;;;3.00;1.00;;;;;;;;4979454;28;45527;-75
2023/02/17 16:58:14;;;;;;;;;1.00;1.00;;;;;;;;4979833;28;45481;-75
2023/02/17 17:00:39;;;;;;;;;1.67;1.67;;;;;;;;4973647;28;45577;-76
2023/02/17 17:03:04;;;;;;;;;1.00;1.00;;;;;;;;4982306;28;46832;-76
2023/02/17 17:05:30;;;;;;;;;2.00;2.00;;;;;;;;4979787;28;45384;-76
2023/02/17 17:07:55;;;;;;;;;1.33;1.33;;;;;;;;4980258;28;45557;-75
2023/02/17 17:10:22;;;;;;;;;2.00;2.00;;;;;;;;4979199;28;45552;-77
2023/02/17 17:12:47;;;;;;;;;1.67;1.67;;;;;;;;4979975;28;45315;-75
2023/02/17 17:15:15;;;;;;;;;1.00;1.00;;;;;;;;4979810;28;45278;-77
2023/02/17 17:17:42;;;;;;;;;2.00;2.00;;;;;;;;4974766;28;45388;-77
2023/02/17 17:20:12;;;;;;;;;2.00;2.00;;;;;;;;4980018;28;45523;-77
2023/02/17 17:22:37;;;;;;;;;2.00;2.00;;;;;;;;4979511;28;45398;-76
2023/02/17 17:25:02;;;;;;;;;1.67;1.67;;;;;;;;4978270;28;45514;-76
2023/02/17 17:27:28;;;;;;;;;2.00;2.00;;;;;;;;4979583;28;45699;-76
2023/02/17 17:29:53;;;;;;;;;2.33;2.33;;;;;;;;4978981;28;45659;-76
2023/02/17 17:32:18;;;;;;;;;2.67;2.00;;;;;;;;4978949;28;45631;-76
2023/02/17 17:34:43;;;;;;;;;2.33;2.33;;;;;;;;4991425;28;45887;-75
2023/02/17 17:37:09;;;;;;;;;2.67;2.67;;;;;;;;4979886;28;45381;-76
2023/02/17 17:39:34;;;;;;;;;1.67;1.67;;;;;;;;4978996;28;45524;-76
2023/02/17 17:41:59;;;;;;;;;2.33;2.00;;;;;;;;4979286;28;47082;-76
2023/02/17 17:44:26;;;;;;;;;3.00;3.00;;;;;;;;4982342;28;45710;-76
2023/02/17 17:46:52;;;;;;;;;5.33;3.00;;;;;;;;4978291;28;45368;-78
2023/02/17 17:49:17;;;;;;;;;2.67;2.67;;;;;;;;4980108;28;45592;-76
2023/02/17 17:51:42;;;;;;;;;5.00;3.67;;;;;;;;4978879;28;46015;-76
2023/02/17 17:54:07;;;;;;;;;2.00;2.00;;;;;;;;4979694;28;45773;-77
2023/02/17 17:56:35;;;;;;;;;4.67;4.00;;;;;;;;4978194;28;45442;-75
2023/02/17 17:59:01;;;;;;;;;4.67;4.67;;;;;;;;4978179;28;45492;-76
2023/02/17 18:01:26;;;;;;;;;5.33;4.00;;;;;;;;4978485;28;46103;-77
2023/02/17 18:03:52;;;;;;;;;4.00;4.00;;;;;;;;4969034;28;45677;-76
2023/02/17 18:06:20;;;;;;;;;4.00;4.00;;;;;;;;4977371;28;45479;-76
2023/02/17 18:08:46;;;;;;;;;4.67;4.67;;;;;;;;4973986;28;45382;-76
2023/02/17 18:11:12;;;;;;;;;6.67;3.33;;;;;;;;4978657;28;45574;-76
2023/02/17 18:13:38;;;;;;;;;4.00;3.00;;;;;;;;4977423;28;45696;-76
2023/02/17 18:16:03;;;;;;;;;5.67;4.67;;;;;;;;4979267;28;45474;-77
2023/02/17 18:18:29;;;;;;;;;5.67;3.67;;;;;;;;4979473;28;45326;-77
2023/02/17 18:20:55;;;;;;;;;7.67;3.33;;;;;;;;4978730;28;45459;-77
2023/02/17 18:23:20;;;;;;;;;5.00;4.00;;;;;;;;4979677;28;45324;-77
2023/02/17 18:25:45;;;;;;;;;5.00;5.00;;;;;;;;4978567;28;45515;-77
2023/02/17 18:28:10;;;;;;;;;5.00;4.00;;;;;;;;4979484;28;45515;-76
2023/02/17 18:30:35;;;;;;;;;5.00;5.00;;;;;;;;4979026;28;46180;-76
2023/02/17 18:33:02;;;;;;;;;5.67;4.67;;;;;;;;4984684;28;45479;-80
2023/02/17 18:35:27;;;;;;;;;4.00;4.00;;;;;;;;4996107;28;45504;-76
2023/02/17 18:37:53;;;;;;;;;4.33;4.00;;;;;;;;4979629;28;45429;-76
2023/02/17 18:40:19;;;;;;;;;5.00;5.00;;;;;;;;4976816;28;45538;-75
2023/02/17 18:42:44;;;;;;;;;4.67;4.67;;;;;;;;4978443;28;45647;-77
2023/02/17 18:45:10;;;;;;;;;5.00;3.33;;;;;;;;4978692;28;45536;-76
2023/02/17 18:47:35;;;;;;;;;6.00;6.00;;;;;;;;4975082;28;45361;-76
2023/02/17 18:50:00;;;;;;;;;2.33;2.00;;;;;;;;4979772;28;47165;-75
2023/02/17 18:52:25;;;;;;;;;5.67;5.00;;;;;;;;4996482;28;45339;-76
2023/02/17 18:54:51;;;;;;;;;4.00;3.00;;;;;;;;4978675;28;45621;-75
2023/02/17 18:57:16;;;;;;;;;3.00;3.00;;;;;;;;4978394;28;45452;-76
2023/02/17 18:59:42;;;;;;;;;3.00;3.00;;;;;;;;4977373;28;46312;-76
2023/02/17 19:02:08;;;;;;;;;4.00;2.33;;;;;;;;4979373;28;45412;-76
2023/02/17 19:04:33;;;;;;;;;4.00;4.00;;;;;;;;4978574;28;45487;-75
2023/02/17 19:07:05;;;;;;;;;5.00;5.00;;;;;;;;4979423;28;45460;-76
2023/02/17 19:09:35;;;;;;;;;3.33;3.33;;;;;;;;4976400;28;45609;-76
2023/02/17 19:12:00;;;;;;;;;5.00;4.33;;;;;;;;4979255;28;45405;-75
2023/02/17 19:14:25;;;;;;;;;5.67;4.00;;;;;;;;4978799;28;45418;-75
2023/02/17 19:16:50;;;;;;;;;5.33;4.00;;;;;;;;4978675;28;45494;-78
2023/02/17 19:19:16;;;;;;;;;5.00;4.33;;;;;;;;4978634;28;45480;-76
2023/02/17 19:21:41;;;;;;;;;6.33;5.00;;;;;;;;4976319;28;45558;-75
2023/02/17 19:24:08;;;;;;;;;3.67;3.67;;;;;;;;4980099;28;45507;-75
2023/02/17 19:26:34;;;;;;;;;4.67;4.67;;;;;;;;4976759;28;45420;-77
2023/02/17 19:29:00;;;;;;;;;3.67;3.67;;;;;;;;4976639;28;45524;-75
2023/02/17 19:31:25;;;;;;;;;5.00;5.00;;;;;;;;4977223;28;45580;-75
2023/02/17 19:33:50;;;;;;;;;7.33;6.00;;;;;;;;4992460;28;45509;-77
2023/02/17 19:36:17;;;;;;;;;6.33;4.67;;;;;;;;4977328;28;45877;-76
2023/02/17 19:38:42;;;;;;;;;6.67;4.67;;;;;;;;4977943;28;46429;-76
2023/02/17 19:41:09;;;;;;;;;6.67;5.00;;;;;;;;4973803;28;45467;-76
2023/02/17 19:43:34;;;;;;;;;8.00;7.67;;;;;;;;4974194;28;46208;-76
2023/02/17 19:45:59;;;;;;;;;6.00;6.00;;;;;;;;4975612;28;45458;-76
2023/02/17 19:48:25;;;;;;;;;5.67;5.67;;;;;;;;4975607;28;46918;-75
2023/02/17 19:50:50;;;;;;;;;6.33;6.33;;;;;;;;4976105;28;45689;-75
2023/02/17 19:53:16;;;;;;;;;6.33;5.00;;;;;;;;4976002;28;45428;-74
2023/02/17 19:55:41;;;;;;;;;9.00;9.00;;;;;;;;4975015;28;45715;-76
2023/02/17 19:58:06;;;;;;;;;6.67;4.67;;;;;;;;4976293;28;46236;-75
2023/02/17 20:00:31;;;;;;;;;5.33;5.33;;;;;;;;4969014;28;46577;-75
2023/02/17 20:02:56;;;;;;;;;8.33;8.33;;;;;;;;4966439;28;45729;-75
2023/02/17 20:05:22;;;;;;;;;10.00;10.00;;;;;;;;4972932;28;45415;-74
2023/02/17 20:07:49;;;;;;;;;11.00;10.67;;;;;;;;4982641;28;46815;-79
2023/02/17 20:10:14;;;;;;;;;11.33;10.33;;;;;;;;4974650;28;45531;-77
2023/02/17 20:12:39;;;;;;;;;13.00;12.00;;;;;;;;4970389;28;46532;-77
2023/02/17 20:15:05;;;;;;;;;12.67;10.67;;;;;;;;4975649;28;45445;-77
2023/02/17 20:17:30;;;;;;;;;11.00;11.00;;;;;;;;4974316;28;46348;-77
2023/02/17 20:19:55;;;;;;;;;11.00;11.00;;;;;;;;4977029;28;46307;-77
2023/02/17 20:22:21;;;;;;;;;12.67;12.00;;;;;;;;4979346;28;45363;-76
2023/02/17 20:24:46;;;;;;;;;12.67;12.33;;;;;;;;4976257;28;45566;-76
2023/02/17 20:27:11;;;;;;;;;13.00;11.67;;;;;;;;4979346;28;46212;-76
2023/02/17 20:29:36;;;;;;;;;10.00;9.67;;;;;;;;4979982;28;45538;-76
2023/02/17 20:32:02;;;;;;;;;14.67;13.33;;;;;;;;4980247;28;45430;-75
2023/02/17 20:34:29;;;;;;;;;12.33;12.33;;;;;;;;4981317;28;45722;-75
2023/02/17 20:36:55;;;;;;;;;16.33;13.33;;;;;;;;4979481;28;46021;-76
2023/02/17 20:39:21;;;;;;;;;14.00;14.00;;;;;;;;4980423;28;45718;-76
2023/02/17 20:41:46;;;;;;;;;16.67;14.67;;;;;;;;4979007;28;45407;-75
2023/02/17 20:44:11;;;;;;;;;13.33;11.67;;;;;;;;4979784;28;45373;-76
2023/02/17 20:46:38;;;;;;;;;14.33;13.00;;;;;;;;4979752;28;45522;-76
2023/02/17 20:49:03;;;;;;;;;15.00;13.67;;;;;;;;4974708;28;45418;-77
2023/02/17 20:51:28;;;;;;;;;16.33;15.00;;;;;;;;4980178;28;46133;-59
2023/02/17 20:53:53;;;;;;;;;12.33;12.33;;;;;;;;4978431;28;45396;-60
2023/02/17 20:56:21;;;;;;;;;10.00;10.00;;;;;;;;4980125;28;46074;-59
2023/02/17 20:58:46;;;;;;;;;11.00;11.00;;;;;;;;4979702;28;45397;-59
2023/02/17 21:01:12;;;;;;;;;12.67;12.00;;;;;;;;4978896;28;45697;-59
2023/02/17 21:03:37;;;;;;;;;14.00;12.33;;;;;;;;4979297;28;45559;-60
2023/02/17 21:06:04;;;;;;;;;10.67;10.67;;;;;;;;4990666;28;45320;-60
2023/02/17 21:08:29;;;;;;;;;13.00;13.00;;;;;;;;4979389;28;45397;-60
2023/02/17 21:10:54;;;;;;;;;13.67;13.00;;;;;;;;4979822;28;45698;-60
2023/02/17 21:13:21;;;;;;;;;11.33;11.33;;;;;;;;4980608;28;45835;-61
2023/02/17 21:15:46;;;;;;;;;10.33;10.33;;;;;;;;4984229;28;46330;-59
2023/02/17 21:18:12;;;;;;;;;14.33;13.00;;;;;;;;4979777;28;45437;-59